Time,TemperatureF,DewpointF,PressureIn,WindDirection,WindDirectionDegrees,WindSpeedMPH,WindSpeedGustMPH,Humidity,HourlyPrecipIn,Conditions,Clouds,dailyrainin,SoftwareType,DateUTC
2013-10-06 00:00:00,68.4,67.5,29.83,West,269,0.0,4.0,97,0.00,,---,0.21,VWS V14.01,2013-10-06 04:00:00,
2013-10-06 00:30:00,67.9,66.4,29.82,SSW,208,2.0,8.0,95,0.00,,---,0.00,VWS V14.01,2013-10-06 04:30:00,
2013-10-06 01:00:00,67.2,65.4,29.80,SW,219,2.0,5.0,94,0.00,,---,0.00,VWS V14.01,2013-10-06 05:00:00,
2013-10-06 01:30:00,66.6,65.1,29.79,SE,124,0.0,3.0,95,0.00,,---,0.00,VWS V14.01,2013-10-06 05:30:00,
2013-10-06 02:00:00,66.4,64.9,29.78,SE,128,0.0,4.0,95,0.00,,---,0.00,VWS V14.01,2013-10-06 06:00:00,
2013-10-06 02:30:00,66.3,64.8,29.78,SSE,150,1.0,5.0,95,0.00,,---,0.00,VWS V14.01,2013-10-06 06:30:00,
2013-10-06 03:00:00,66.4,64.9,29.79,SSE,166,0.0,7.0,95,0.00,,---,0.00,VWS V14.01,2013-10-06 07:00:00,
2013-10-06 03:30:00,66.1,64.6,29.77,ESE,120,2.0,6.0,95,0.00,,---,0.00,VWS V14.01,2013-10-06 07:30:00,
2013-10-06 04:00:00,65.8,64.6,29.75,ESE,120,1.0,8.0,96,0.01,,---,0.01,VWS V14.01,2013-10-06 08:00:00,
2013-10-06 04:30:00,65.8,64.6,29.75,East,97,0.0,7.0,96,0.04,,---,0.04,VWS V14.01,2013-10-06 08:30:00,
2013-10-06 05:00:00,65.8,64.9,29.74,ESE,116,0.0,5.0,97,0.06,,---,0.06,VWS V14.01,2013-10-06 09:00:00,
2013-10-06 05:30:00,65.8,64.9,29.75,WSW,253,0.0,4.0,97,0.05,,---,0.06,VWS V14.01,2013-10-06 09:30:00,
2013-10-06 06:00:00,65.9,65.0,29.74,ESE,112,0.0,5.0,97,0.02,,---,0.06,VWS V14.01,2013-10-06 10:00:00,
2013-10-06 06:30:00,66.0,65.1,29.75,SW,222,2.0,6.0,97,0.00,,---,0.06,VWS V14.01,2013-10-06 10:30:00,
2013-10-06 07:00:00,65.9,65.0,29.74,ESE,114,3.0,7.0,97,0.00,,---,0.06,VWS V14.01,2013-10-06 11:00:00,
2013-10-06 07:30:00,65.7,64.5,29.73,ESE,116,0.0,5.0,96,0.00,,---,0.06,VWS V14.01,2013-10-06 11:30:00,
2013-10-06 08:00:00,65.4,64.2,29.71,ESE,120,2.0,10.0,96,0.00,,---,0.06,VWS V14.01,2013-10-06 12:00:00,
2013-10-06 08:30:00,65.5,64.3,29.72,ESE,120,2.0,6.0,96,0.00,,---,0.06,VWS V14.01,2013-10-06 12:30:00,
2013-10-06 09:00:00,65.6,64.4,29.71,ESE,107,2.0,6.0,96,0.00,,---,0.06,VWS V14.01,2013-10-06 13:00:00,
2013-10-06 09:30:00,61.7,60.0,29.72,WNW,287,6.0,11.0,94,0.01,,---,0.07,VWS V14.01,2013-10-06 13:30:00,
2013-10-06 10:00:00,57.0,55.9,29.73,WNW,285,7.0,11.0,96,0.01,,---,0.07,VWS V14.01,2013-10-06 14:00:00,
2013-10-06 10:30:00,56.4,55.6,29.73,West,270,5.0,12.0,97,0.03,,---,0.09,VWS V14.01,2013-10-06 14:30:00,
2013-10-06 11:00:00,56.2,55.4,29.73,WNW,292,4.0,7.0,97,0.05,,---,0.12,VWS V14.01,2013-10-06 15:00:00,
2013-10-06 11:30:00,56.0,54.9,29.74,WNW,292,4.0,8.0,96,0.08,,---,0.15,VWS V14.01,2013-10-06 15:30:00,
2013-10-06 12:00:00,56.1,55.3,29.74,WNW,292,4.0,9.0,97,0.12,,---,0.21,VWS V14.01,2013-10-06 16:00:00,
2013-10-06 12:30:00,55.1,54.0,29.74,WNW,292,5.0,9.0,96,0.12,,---,0.24,VWS V14.01,2013-10-06 16:30:00,
2013-10-06 13:00:00,56.1,55.3,29.74,WNW,292,4.0,9.0,97,0.12,,---,0.21,VWS V14.01,2013-10-06 17:00:00,
2013-10-06 13:30:00,54.5,52.2,29.73,West,271,5.0,10.0,92,0.12,,---,0.27,VWS V14.01,2013-10-06 17:30:00,
2013-10-06 14:00:00,54.9,52.0,29.70,SW,236,4.0,7.0,90,0.03,,---,0.27,VWS V14.01,2013-10-06 18:00:00,
2013-10-06 14:30:00,55.2,52.3,29.69,WNW,283,6.0,7.0,90,0.00,,---,0.27,VWS V14.01,2013-10-06 18:30:00,
2013-10-06 15:00:00,56.4,52.6,29.70,West,274,5.0,9.0,87,0.00,,---,0.27,VWS V14.01,2013-10-06 19:00:00,
2013-10-06 15:30:00,57.6,52.8,29.69,WNW,291,6.0,10.0,84,0.00,,---,0.27,VWS V14.01,2013-10-06 19:30:00,
2013-10-06 16:00:00,58.4,52.6,29.69,WSW,246,4.0,8.0,81,0.00,,---,0.27,VWS V14.01,2013-10-06 20:00:00,
2013-10-06 16:30:00,60.1,53.2,29.69,WNW,290,4.0,6.0,78,0.00,,---,0.27,VWS V14.01,2013-10-06 20:30:00,
2013-10-06 17:00:00,60.4,53.9,29.68,SW,229,0.0,6.0,79,0.00,,---,0.27,VWS V14.01,2013-10-06 21:00:00,
2013-10-06 17:30:00,63.5,54.7,29.68,West,266,0.0,3.0,73,0.00,,---,0.27,VWS V14.01,2013-10-06 21:30:00,
2013-10-06 18:00:00,62.2,54.2,29.68,WSW,243,2.0,11.0,75,0.00,,---,0.27,VWS V14.01,2013-10-06 22:00:00,
2013-10-06 18:30:00,62.2,52.7,29.69,WSW,252,0.0,6.0,71,0.00,,---,0.27,VWS V14.01,2013-10-06 22:30:00,
2013-10-06 19:00:00,60.4,54.2,29.69,East,89,0.0,2.0,80,0.00,,---,0.27,VWS V14.01,2013-10-06 23:00:00,
2013-10-06 19:30:00,57.2,53.4,29.70,ESE,115,0.0,7.0,87,0.00,,---,0.27,VWS V14.01,2013-10-06 23:30:00,
2013-10-06 20:00:00,56.0,53.1,29.70,ESE,115,0.0,1.0,90,0.00,,---,0.27,VWS V14.01,2013-10-07 00:00:00,
2013-10-06 20:30:00,57.8,48.8,29.73,WNW,282,10.0,16.0,72,0.00,,---,0.27,VWS V14.01,2013-10-07 00:30:00,
2013-10-06 21:00:00,55.9,47.0,29.75,West,264,15.0,18.0,72,0.00,,---,0.27,VWS V14.01,2013-10-07 01:00:00,
2013-10-06 21:30:00,54.7,46.9,29.76,WNW,293,7.0,16.0,75,0.00,,---,0.27,VWS V14.01,2013-10-07 01:30:00,
2013-10-06 22:00:00,53.6,45.2,29.77,West,279,6.0,17.0,73,0.00,,---,0.27,VWS V14.01,2013-10-07 02:00:00,
2013-10-06 22:30:00,52.7,43.9,29.77,WNW,291,7.0,16.0,72,0.00,,---,0.27,VWS V14.01,2013-10-07 02:30:00,
2013-10-06 23:00:00,51.7,44.0,29.77,WNW,291,5.0,15.0,75,0.00,,---,0.27,VWS V14.01,2013-10-07 03:00:00,
2013-10-06 23:30:00,50.4,43.5,29.77,WSW,243,4.0,9.0,77,0.00,,---,0.27,VWS V14.01,2013-10-07 03:30:00,